createdAt,value
2024-05-09T18:28:47.349Z,20.30
2024-05-09T18:31:49.034Z,22.50
2024-05-09T18:34:50.829Z,22.70
2024-05-09T18:37:52.511Z,22.90
2024-05-09T18:40:54.752Z,23.00
2024-05-09T18:43:57.201Z,23.90
2024-05-09T18:46:58.923Z,24.90
2024-05-09T18:50:00.762Z,25.40
2024-05-09T18:53:02.908Z,25.30
2024-05-09T18:56:04.767Z,25.00
2024-05-09T18:59:06.470Z,24.70
2024-05-09T19:02:08.428Z,24.50
2024-05-09T19:05:10.247Z,24.30
2024-05-09T19:08:12.048Z,24.20
2024-05-09T19:11:13.769Z,24.10
2024-05-09T19:14:15.662Z,24.10
2024-05-09T19:17:17.354Z,24.00
2024-05-09T19:20:25.453Z,24.00
2024-05-09T19:23:38.078Z,23.90
2024-05-09T19:26:42.597Z,23.90
2024-05-09T19:29:44.249Z,23.90
2024-05-09T19:32:46.395Z,23.80
2024-05-09T19:35:48.408Z,23.80
2024-05-09T19:38:51.500Z,23.80
2024-05-09T19:41:53.258Z,23.70
2024-05-09T19:44:55.201Z,23.70
2024-05-09T19:47:57.077Z,23.70
2024-05-09T19:50:58.982Z,23.70
2024-05-09T19:54:00.786Z,23.70
2024-05-09T19:57:02.483Z,23.70
2024-05-09T20:00:05.882Z,23.70
2024-05-09T20:03:08.312Z,23.70
2024-05-09T20:06:10.195Z,23.70
2024-05-09T20:09:11.877Z,23.70
2024-05-09T20:12:13.830Z,23.70
2024-05-09T20:15:15.498Z,23.70
2024-05-09T20:18:17.262Z,23.70
2024-05-09T20:21:19.043Z,23.70
2024-05-09T20:24:21.007Z,23.70
2024-05-09T20:27:22.686Z,23.60
2024-05-09T20:30:31.294Z,23.60
2024-05-09T20:33:35.328Z,23.60
2024-05-09T20:36:37.118Z,23.60
2024-05-09T20:39:39.236Z,23.60
2024-05-09T20:42:41.264Z,23.60
2024-05-09T20:45:42.968Z,23.60
2024-05-09T20:48:44.795Z,23.60
2024-05-09T20:51:46.667Z,23.50
2024-05-09T20:54:48.654Z,23.50
2024-05-09T20:57:50.352Z,23.60
2024-05-09T21:00:52.169Z,23.50
2024-05-09T21:03:54.073Z,23.50
2024-05-09T21:06:55.926Z,23.50
2024-05-09T21:09:57.640Z,23.50
